createdAt,value
2022-08-03T00:01:28.348Z,86.38
2022-08-03T00:03:55.475Z,86.99
2022-08-03T00:06:22.539Z,87.17
2022-08-03T00:08:49.678Z,86.80
2022-08-03T00:11:16.715Z,87.52
2022-08-03T00:13:44.044Z,86.92
2022-08-03T00:16:11.230Z,87.11
2022-08-03T00:18:38.291Z,87.02
2022-08-03T00:21:05.962Z,87.85
2022-08-03T00:23:52.048Z,86.84
2022-08-03T00:26:20.931Z,87.05
2022-08-03T00:28:48.853Z,88.17
2022-08-03T00:31:16.242Z,88.32
2022-08-03T00:33:59.468Z,88.30
2022-08-03T00:36:30.323Z,88.32
2022-08-03T00:38:57.543Z,88.52
2022-08-03T00:41:24.701Z,88.95
2022-08-03T00:43:51.864Z,88.90
2022-08-03T00:46:21.758Z,89.57
2022-08-03T00:48:50.454Z,89.39
2022-08-03T00:51:19.126Z,89.85
2022-08-03T00:53:46.208Z,90.11
2022-08-03T00:56:16.990Z,90.57
2022-08-03T00:58:46.091Z,89.97
2022-08-03T01:01:14.211Z,90.36
2022-08-03T01:03:41.725Z,90.53
2022-08-03T01:06:31.129Z,90.57
2022-08-03T01:09:12.179Z,90.70
2022-08-03T01:12:10.835Z,91.01
2022-08-03T01:15:04.014Z,91.20
2022-08-03T01:17:51.409Z,91.08
2022-08-03T01:20:22.210Z,91.38
2022-08-03T01:23:00.620Z,92.28
2022-08-03T01:25:46.203Z,91.30
2022-08-03T01:28:37.165Z,91.07
2022-08-03T01:31:08.322Z,91.53
2022-08-03T01:33:39.152Z,91.33
2022-08-03T01:36:13.047Z,91.70
2022-08-03T01:38:49.397Z,92.03
2022-08-03T01:41:22.537Z,92.45
2022-08-03T01:44:27.652Z,92.81
2022-08-03T01:46:40.429Z,92.19
2022-08-03T01:49:15.997Z,92.10
2022-08-03T01:51:58.401Z,93.14
2022-08-03T01:54:40.822Z,93.85
2022-08-03T01:57:09.641Z,93.41
2022-08-03T01:59:38.695Z,94.06
2022-08-03T02:02:32.060Z,94.56
2022-08-03T02:04:58.286Z,94.81
2022-08-03T02:07:28.959Z,94.59
2022-08-03T02:09:58.320Z,94.63
2022-08-03T02:12:28.210Z,95.08
2022-08-03T02:14:57.658Z,95.16
2022-08-03T02:17:38.669Z,94.91
2022-08-03T02:20:10.812Z,95.01
2022-08-03T02:22:43.577Z,95.12
2022-08-03T02:25:13.439Z,94.79
2022-08-03T02:27:48.658Z,95.16
2022-08-03T02:30:15.938Z,95.01
2022-08-03T02:32:51.455Z,95.13
2022-08-03T02:35:20.972Z,95.18
2022-08-03T02:37:52.288Z,95.18
2022-08-03T02:40:21.390Z,94.90
2022-08-03T02:42:53.198Z,95.01
2022-08-03T02:45:21.212Z,94.93
2022-08-03T02:47:54.279Z,94.96
2022-08-03T02:50:23.440Z,95.23
2022-08-03T02:52:51.926Z,95.86
2022-08-03T02:55:21.558Z,96.67
2022-08-03T02:57:49.862Z,96.59
2022-08-03T03:00:27.195Z,96.91
2022-08-03T03:02:58.460Z,96.95
2022-08-03T03:05:53.655Z,95.34
2022-08-03T03:08:17.771Z,95.97
2022-08-03T03:10:47.061Z,97.11
2022-08-03T03:13:16.001Z,97.19
2022-08-03T03:15:45.165Z,96.45
2022-08-03T03:18:15.921Z,97.07
2022-08-03T03:20:47.677Z,97.54
2022-08-03T03:23:15.411Z,97.33
2022-08-03T03:25:43.498Z,97.31
2022-08-03T03:28:11.369Z,97.67
2022-08-03T03:30:38.608Z,97.03
2022-08-03T03:33:05.782Z,97.01
2022-08-03T03:35:38.967Z,98.35
2022-08-03T03:38:07.200Z,96.81
2022-08-03T03:40:38.444Z,98.68
2022-08-03T03:43:10.514Z,97.90
2022-08-03T03:45:40.465Z,98.20
2022-08-03T03:48:08.372Z,98.00
2022-08-03T03:50:37.448Z,97.39
2022-08-03T03:53:04.859Z,97.27
2022-08-03T03:55:32.071Z,97.02
2022-08-03T03:57:59.849Z,97.91
2022-08-03T04:00:26.985Z,98.05
2022-08-03T04:02:54.049Z,98.92
2022-08-03T04:05:42.961Z,99.95
2022-08-03T04:08:35.366Z,100.00
2022-08-03T04:11:14.831Z,99.43
2022-08-03T04:14:05.037Z,99.50
2022-08-03T04:16:43.819Z,99.23
2022-08-03T04:19:18.533Z,99.43
2022-08-03T04:21:57.285Z,98.49
2022-08-03T04:24:30.331Z,98.37
2022-08-03T04:26:59.466Z,97.90
2022-08-03T04:29:29.073Z,97.48
2022-08-03T04:31:59.827Z,96.64
2022-08-03T04:34:30.793Z,97.29
2022-08-03T04:37:00.453Z,97.29
2022-08-03T04:39:29.902Z,95.60
2022-08-03T04:42:08.223Z,95.36
2022-08-03T04:44:40.365Z,96.21
2022-08-03T04:47:08.523Z,95.06
2022-08-03T04:49:38.080Z,95.10
2022-08-03T04:52:07.963Z,94.51
2022-08-03T04:54:40.415Z,93.47
2022-08-03T04:57:07.565Z,93.54
2022-08-03T04:59:39.094Z,94.72
2022-08-03T05:02:08.058Z,94.46
2022-08-03T05:04:35.109Z,93.90
2022-08-03T05:07:11.728Z,93.39
2022-08-03T05:09:50.549Z,92.74
2022-08-03T05:12:20.064Z,93.31
2022-08-03T05:14:47.172Z,93.90
2022-08-03T05:17:14.642Z,92.62
2022-08-03T05:19:41.658Z,92.95
2022-08-03T05:22:08.701Z,90.58
2022-08-03T05:24:35.752Z,90.61
2022-08-03T05:27:02.801Z,90.48
2022-08-03T05:29:29.834Z,89.69
2022-08-03T05:31:56.957Z,89.76
2022-08-03T05:34:24.024Z,89.36
2022-08-03T05:36:51.085Z,89.25
2022-08-03T05:39:18.121Z,89.45
2022-08-03T05:41:45.206Z,89.44
2022-08-03T05:44:12.245Z,89.26
2022-08-03T05:46:39.308Z,89.07
2022-08-03T05:49:06.507Z,89.15
2022-08-03T05:51:33.605Z,88.81
2022-08-03T05:54:00.666Z,89.04
2022-08-03T05:56:27.741Z,88.43
2022-08-03T05:58:54.921Z,87.87
2022-08-03T06:01:22.506Z,87.41
2022-08-03T06:03:50.759Z,87.43
2022-08-03T06:06:18.746Z,86.24
2022-08-03T06:08:46.615Z,85.73
2022-08-03T06:11:13.714Z,84.72
2022-08-03T06:13:41.098Z,84.07
2022-08-03T06:16:08.505Z,83.86
2022-08-03T06:18:36.215Z,84.17
2022-08-03T06:21:14.042Z,83.86
2022-08-03T06:23:54.055Z,83.48
2022-08-03T06:26:27.615Z,84.68
2022-08-03T06:28:55.229Z,83.72
2022-08-03T06:31:25.824Z,83.30
2022-08-03T06:34:35.150Z,83.42
2022-08-03T06:36:39.981Z,82.34
2022-08-03T06:39:08.246Z,81.96
2022-08-03T06:41:37.676Z,81.34
2022-08-03T06:44:12.397Z,80.94
2022-08-03T06:46:39.789Z,80.48
2022-08-03T06:49:07.577Z,79.88
2022-08-03T06:52:04.977Z,78.51
2022-08-03T06:54:22.257Z,77.75
2022-08-03T06:56:49.464Z,76.63
2022-08-03T07:00:08.893Z,75.43
2022-08-03T07:02:03.884Z,74.98
2022-08-03T07:04:30.893Z,73.84
2022-08-03T07:06:58.460Z,73.77
2022-08-03T07:09:26.641Z,71.76
2022-08-03T07:11:55.035Z,71.07
2022-08-03T07:14:22.085Z,70.30
2022-08-03T07:16:49.167Z,69.51
2022-08-03T07:19:16.615Z,69.00
2022-08-03T07:21:43.679Z,68.47
2022-08-03T07:24:10.747Z,67.85
2022-08-03T07:26:37.811Z,66.79
2022-08-03T07:29:11.773Z,66.50
2022-08-03T07:31:42.686Z,66.69
2022-08-03T07:34:09.816Z,65.31
2022-08-03T07:36:37.092Z,64.19
2022-08-03T07:41:45.865Z,63.79
2022-08-03T07:44:13.237Z,63.89
2022-08-03T07:46:40.367Z,62.37
2022-08-03T07:49:07.510Z,61.50
2022-08-03T07:51:34.851Z,60.72
2022-08-03T07:54:02.076Z,60.12
2022-08-03T07:56:29.510Z,58.54
2022-08-03T07:58:56.860Z,58.26
2022-08-03T08:01:24.231Z,56.78
2022-08-03T08:03:52.410Z,56.84
2022-08-03T08:06:21.888Z,57.47
2022-08-03T08:08:48.941Z,56.63
2022-08-03T08:11:15.969Z,56.01
2022-08-03T08:13:43.016Z,55.62
2022-08-03T08:16:10.018Z,55.40
2022-08-03T08:18:37.053Z,55.31
2022-08-03T08:21:04.215Z,54.18
2022-08-03T08:23:42.353Z,53.36
2022-08-03T08:26:12.181Z,53.63
2022-08-03T08:28:39.842Z,53.53
2022-08-03T08:31:06.958Z,52.22
2022-08-03T08:34:02.743Z,52.29
2022-08-03T08:36:22.147Z,51.51
2022-08-03T08:38:49.240Z,51.25
2022-08-03T08:41:16.885Z,50.53
2022-08-03T08:43:43.941Z,50.98
2022-08-03T08:46:13.142Z,49.13
2022-08-03T08:48:51.943Z,49.45
2022-08-03T08:51:20.589Z,49.32
2022-08-03T08:53:53.643Z,48.43
2022-08-03T08:56:25.296Z,49.55
2022-08-03T08:58:57.942Z,50.28
2022-08-03T09:01:25.463Z,48.39
2022-08-03T09:03:54.100Z,47.97
2022-08-03T09:06:22.807Z,47.43
2022-08-03T09:08:49.917Z,46.60
2022-08-03T09:11:22.202Z,47.77
2022-08-03T09:14:10.205Z,47.17
2022-08-03T09:17:05.144Z,47.77
2022-08-03T09:19:34.351Z,45.79
2022-08-03T09:22:10.825Z,45.68
2022-08-03T09:25:14.735Z,45.99
2022-08-03T09:27:44.780Z,45.06
2022-08-03T09:30:19.120Z,45.13
2022-08-03T09:33:08.320Z,44.82
2022-08-03T09:35:53.939Z,46.21
2022-08-03T09:38:24.155Z,45.86
2022-08-03T09:40:55.943Z,44.76
2022-08-03T09:43:27.414Z,44.34
2022-08-03T09:46:03.673Z,44.45
2022-08-03T09:48:34.621Z,44.34
2022-08-03T09:52:11.021Z,44.20
2022-08-03T09:53:58.885Z,44.97
2022-08-03T09:56:40.025Z,44.93
2022-08-03T09:59:07.981Z,44.54
2022-08-03T10:01:35.912Z,44.22
2022-08-03T10:04:05.170Z,43.50
2022-08-03T10:06:32.774Z,43.89
2022-08-03T10:09:11.575Z,43.65
2022-08-03T10:11:42.147Z,43.62
2022-08-03T10:14:11.325Z,43.01
2022-08-03T10:16:40.197Z,44.28
2022-08-03T10:19:08.377Z,43.22
2022-08-03T10:21:38.465Z,42.67
2022-08-03T10:24:07.483Z,43.31
2022-08-03T10:26:49.873Z,41.75
2022-08-03T10:29:24.985Z,42.57
2022-08-03T10:31:58.721Z,42.97
2022-08-03T10:34:28.980Z,42.27
2022-08-03T10:36:58.781Z,41.98
2022-08-03T10:39:29.174Z,40.92
2022-08-03T10:41:58.720Z,41.11
2022-08-03T10:44:37.066Z,40.96
2022-08-03T10:47:05.002Z,40.72
2022-08-03T10:49:34.738Z,43.49
2022-08-03T10:52:12.905Z,41.69
2022-08-03T10:55:03.290Z,41.49
2022-08-03T10:57:43.358Z,41.19
2022-08-03T11:00:20.222Z,40.85
2022-08-03T11:03:06.532Z,42.18
2022-08-03T11:05:44.920Z,42.79
2022-08-03T11:08:20.981Z,41.43
2022-08-03T11:10:49.609Z,40.33
2022-08-03T11:13:20.251Z,39.55
2022-08-03T11:15:49.965Z,40.68
2022-08-03T11:18:17.505Z,39.93
2022-08-03T11:20:46.233Z,40.86
2022-08-03T11:23:14.851Z,40.87
2022-08-03T11:26:14.013Z,40.01
2022-08-03T11:28:44.439Z,39.91
2022-08-03T11:31:48.599Z,39.07
2022-08-03T11:34:14.390Z,38.92
2022-08-03T11:37:21.401Z,37.84
2022-08-03T11:39:51.128Z,39.42
2022-08-03T11:42:23.905Z,38.22
2022-08-03T11:44:56.463Z,38.78
2022-08-03T11:47:26.818Z,39.06
2022-08-03T11:50:00.564Z,39.65
2022-08-03T11:52:34.977Z,39.08
2022-08-03T11:55:02.301Z,38.65
2022-08-03T11:59:15.214Z,39.21
2022-08-03T12:00:25.856Z,39.01
2022-08-03T12:03:01.757Z,37.46
2022-08-03T12:05:51.297Z,37.41
2022-08-03T12:08:31.322Z,37.43
2022-08-03T12:11:00.544Z,36.96
2022-08-03T12:14:28.931Z,37.58
2022-08-03T12:16:29.753Z,37.65
2022-08-03T12:19:00.116Z,38.52
2022-08-03T12:21:27.682Z,38.42
2022-08-03T12:24:02.795Z,38.42
2022-08-03T12:26:42.260Z,37.15
2022-08-03T12:29:17.212Z,37.31
2022-08-03T12:31:44.373Z,37.45
2022-08-03T12:34:11.985Z,37.63
2022-08-03T12:36:49.678Z,37.32
2022-08-03T12:39:17.235Z,37.25
2022-08-03T12:41:44.841Z,37.98
2022-08-03T12:44:11.894Z,37.21
2022-08-03T12:46:46.991Z,38.74
2022-08-03T12:49:17.260Z,37.91
2022-08-03T12:51:44.349Z,37.61
2022-08-03T12:54:24.846Z,36.80
2022-08-03T12:57:07.525Z,38.22
2022-08-03T12:59:41.188Z,35.98
2022-08-03T13:02:19.019Z,36.63
2022-08-03T13:04:47.848Z,35.70
2022-08-03T13:07:16.378Z,36.03
2022-08-03T13:09:57.510Z,35.06
2022-08-03T13:12:27.365Z,36.59
2022-08-03T13:14:59.645Z,36.26
2022-08-03T13:17:26.813Z,36.14
2022-08-03T13:19:54.331Z,34.90
2022-08-03T13:22:23.893Z,35.38
2022-08-03T13:24:55.793Z,33.65
2022-08-03T13:28:03.156Z,35.49
2022-08-03T13:30:11.295Z,35.53
2022-08-03T13:32:38.434Z,36.63
2022-08-03T13:35:06.658Z,35.65
2022-08-03T13:37:34.423Z,34.70
2022-08-03T13:40:03.029Z,35.91
2022-08-03T13:42:33.358Z,35.34
2022-08-03T13:45:01.237Z,36.04
2022-08-03T13:47:28.585Z,35.09
2022-08-03T13:50:01.032Z,34.03
2022-08-03T13:52:36.103Z,35.42
2022-08-03T13:55:06.164Z,33.65
2022-08-03T13:58:02.615Z,34.20
2022-08-03T14:00:28.052Z,35.35
2022-08-03T14:03:03.979Z,34.54
2022-08-03T14:05:35.687Z,33.93
2022-08-03T14:08:05.304Z,32.80
2022-08-03T14:10:34.290Z,33.16
2022-08-03T14:13:01.407Z,33.93
2022-08-03T14:15:28.708Z,33.43
2022-08-03T14:17:58.471Z,32.42
2022-08-03T14:20:37.799Z,33.41
2022-08-03T14:23:14.187Z,32.43
2022-08-03T14:25:50.021Z,31.98
2022-08-03T14:28:23.088Z,31.19
2022-08-03T14:30:54.483Z,31.41
2022-08-03T14:33:22.419Z,31.96
2022-08-03T14:35:49.930Z,32.85
2022-08-03T14:38:18.005Z,32.11
2022-08-03T14:40:45.272Z,31.57
2022-08-03T14:43:12.523Z,31.14
2022-08-03T14:45:40.335Z,32.35
2022-08-03T14:50:33.567Z,32.10
2022-08-03T14:50:55.287Z,31.52
2022-08-03T14:53:22.703Z,31.46
2022-08-03T14:55:51.854Z,33.85
2022-08-03T14:58:21.540Z,31.25
2022-08-03T15:00:50.518Z,31.60
2022-08-03T15:03:23.868Z,33.03
2022-08-03T15:05:52.861Z,32.51
2022-08-03T15:08:20.906Z,32.53
2022-08-03T15:10:49.313Z,31.79
2022-08-03T15:13:17.488Z,29.54
2022-08-03T15:15:44.863Z,30.32
2022-08-03T15:18:12.132Z,30.70
2022-08-03T15:20:44.944Z,31.32
2022-08-03T15:23:14.788Z,30.30
2022-08-03T15:26:31.915Z,30.19
2022-08-03T15:28:30.602Z,30.86
2022-08-03T15:30:57.745Z,31.63
2022-08-03T15:33:24.794Z,32.69
2022-08-03T15:35:52.898Z,32.38
2022-08-03T15:38:20.090Z,31.41
2022-08-03T15:40:47.151Z,31.04
2022-08-03T15:43:14.503Z,30.87
2022-08-03T15:45:42.854Z,29.95
2022-08-03T15:48:09.898Z,29.11
2022-08-03T15:50:36.994Z,30.92
2022-08-03T15:53:04.629Z,30.54
2022-08-03T15:55:32.170Z,30.45
2022-08-03T15:59:04.506Z,32.09
2022-08-03T16:00:46.594Z,30.83
2022-08-03T16:03:13.725Z,30.79
2022-08-03T16:05:40.768Z,32.09
2022-08-03T16:08:11.785Z,33.64
2022-08-03T16:10:41.296Z,33.89
2022-08-03T16:13:08.588Z,34.24
2022-08-03T16:15:38.542Z,36.08
2022-08-03T16:18:06.744Z,37.57
2022-08-03T16:20:35.290Z,36.58
2022-08-03T16:23:11.205Z,36.81
2022-08-03T16:25:40.408Z,34.29
2022-08-03T16:28:13.926Z,33.12
2022-08-03T16:30:44.221Z,32.05
2022-08-03T16:33:16.621Z,29.47
2022-08-03T16:35:45.395Z,29.16
2022-08-03T16:38:16.764Z,26.05
2022-08-03T16:40:47.421Z,25.71
2022-08-03T16:43:19.016Z,24.53
2022-08-03T16:45:47.158Z,23.44
2022-08-03T16:48:15.327Z,22.07
2022-08-03T16:50:42.930Z,21.73
2022-08-03T16:53:15.658Z,22.08
2022-08-03T16:55:52.333Z,22.89
2022-08-03T16:58:41.566Z,22.07
2022-08-03T17:01:24.019Z,23.81
2022-08-03T17:04:02.726Z,22.44
2022-08-03T17:06:37.970Z,22.46
2022-08-03T17:09:14.923Z,21.68
2022-08-03T17:11:47.614Z,21.38
2022-08-03T17:14:17.473Z,21.20
2022-08-03T17:16:52.175Z,21.24
2022-08-03T17:19:23.649Z,20.89
2022-08-03T17:22:04.812Z,20.98
2022-08-03T17:24:34.385Z,22.33
2022-08-03T17:27:09.251Z,24.52
2022-08-03T17:30:01.143Z,26.70
2022-08-03T17:32:32.330Z,28.26
2022-08-03T17:34:59.625Z,28.78
2022-08-03T17:37:57.540Z,27.54
2022-08-03T17:40:17.535Z,25.21
2022-08-03T17:42:50.654Z,23.79
2022-08-03T17:45:18.892Z,25.96
2022-08-03T17:47:57.768Z,27.10
2022-08-03T17:50:37.389Z,30.08
2022-08-03T17:53:23.977Z,31.33
2022-08-03T17:56:04.558Z,31.56
2022-08-03T17:58:58.640Z,32.46
2022-08-03T18:02:14.465Z,31.97
2022-08-03T18:05:16.603Z,34.30
2022-08-03T18:08:00.850Z,36.56
2022-08-03T18:10:35.777Z,37.46
2022-08-03T18:13:11.007Z,35.42
2022-08-03T18:15:46.015Z,37.94
2022-08-03T18:18:16.006Z,36.27
2022-08-03T18:20:45.493Z,36.96
2022-08-03T18:23:24.605Z,39.35
2022-08-03T18:26:04.730Z,38.24
2022-08-03T18:28:33.691Z,40.57
2022-08-03T18:31:05.617Z,39.98
2022-08-03T18:34:32.021Z,38.53
2022-08-03T18:36:30.148Z,40.13
2022-08-03T18:39:01.764Z,41.21
2022-08-03T18:41:34.325Z,42.36
2022-08-03T18:44:08.004Z,42.37
2022-08-03T18:46:55.366Z,42.05
2022-08-03T18:49:45.024Z,41.43
2022-08-03T18:52:21.634Z,41.26
2022-08-03T18:55:19.955Z,43.60
2022-08-03T18:58:25.667Z,45.04
2022-08-03T19:01:57.870Z,46.12
2022-08-03T19:04:02.966Z,46.89
2022-08-03T19:06:31.732Z,46.54
2022-08-03T19:09:06.788Z,47.10
2022-08-03T19:12:10.970Z,47.04
2022-08-03T19:14:39.234Z,47.82
2022-08-03T19:17:10.630Z,48.11
2022-08-03T19:19:43.418Z,48.40
2022-08-03T19:22:15.961Z,49.10
2022-08-03T19:24:45.665Z,48.87
2022-08-03T19:27:14.140Z,49.66
2022-08-03T19:29:59.142Z,49.64
2022-08-03T19:32:29.404Z,50.13
2022-08-03T19:37:45.363Z,51.17
2022-08-03T19:40:12.655Z,51.92
2022-08-03T19:42:44.417Z,52.39
2022-08-03T19:45:17.050Z,52.35
2022-08-03T19:47:56.525Z,52.64
2022-08-03T19:50:25.586Z,53.78
2022-08-03T19:52:53.144Z,53.46
2022-08-03T19:55:20.339Z,53.46
2022-08-03T19:57:49.023Z,53.97
2022-08-03T20:00:20.029Z,54.25
2022-08-03T20:02:53.842Z,53.96
2022-08-03T20:05:21.315Z,55.10
2022-08-03T20:07:50.154Z,54.67
2022-08-03T20:10:18.806Z,54.57
2022-08-03T20:12:48.363Z,54.58
2022-08-03T20:15:18.128Z,55.81
2022-08-03T20:17:56.662Z,55.62
2022-08-03T20:20:30.788Z,55.87
2022-08-03T20:23:00.756Z,56.36
2022-08-03T20:25:38.027Z,56.64
2022-08-03T20:28:15.155Z,56.60
2022-08-03T20:30:47.301Z,57.32
2022-08-03T20:33:18.571Z,57.55
2022-08-03T20:35:49.162Z,57.51
2022-08-03T20:38:18.432Z,58.31
2022-08-03T20:40:47.356Z,59.00
2022-08-03T20:43:15.584Z,59.05
2022-08-03T20:46:00.811Z,59.46
2022-08-03T20:48:30.190Z,60.07
2022-08-03T20:50:57.311Z,60.10
2022-08-03T20:53:31.149Z,61.15
2022-08-03T20:56:14.518Z,60.85
2022-08-03T20:58:42.453Z,60.76
2022-08-03T21:01:17.693Z,61.42
2022-08-03T21:03:55.573Z,62.20
2022-08-03T21:06:27.694Z,62.54
2022-08-03T21:09:03.853Z,63.26
2022-08-03T21:11:50.257Z,64.26
2022-08-03T21:13:02.505Z,50.43
2022-08-03T21:14:27.849Z,64.12
2022-08-03T21:16:58.402Z,64.50
2022-08-03T21:19:30.306Z,65.27
2022-08-03T21:21:59.191Z,65.08
2022-08-03T21:24:30.385Z,64.95
2022-08-03T21:26:58.260Z,65.00
2022-08-03T21:29:26.714Z,65.57
2022-08-03T21:31:54.249Z,65.75
2022-08-03T21:34:21.509Z,65.94
2022-08-03T21:36:49.218Z,67.26
2022-08-03T21:39:16.366Z,67.32
2022-08-03T21:41:43.532Z,67.88
2022-08-03T21:44:10.915Z,68.16
2022-08-03T21:46:40.605Z,68.63
2022-08-03T21:50:04.478Z,68.95
2022-08-03T21:51:59.503Z,68.55
2022-08-03T21:54:33.357Z,69.08
2022-08-03T21:57:03.853Z,70.17
2022-08-03T21:59:38.021Z,69.72
2022-08-03T22:02:20.835Z,69.15
2022-08-03T22:04:55.753Z,69.12
2022-08-03T22:07:29.131Z,69.39
2022-08-03T22:09:57.578Z,69.77
2022-08-03T22:12:26.884Z,69.83
2022-08-03T22:15:01.430Z,70.89
2022-08-03T22:17:55.079Z,72.17
2022-08-03T22:20:20.737Z,72.31
2022-08-03T22:22:56.117Z,71.89
2022-08-03T22:25:29.789Z,72.70
2022-08-03T22:28:01.287Z,72.43
2022-08-03T22:30:29.052Z,73.02
2022-08-03T22:32:57.349Z,72.79
2022-08-03T22:35:27.326Z,73.80
2022-08-03T22:37:57.269Z,74.33
2022-08-03T22:40:25.902Z,74.79
2022-08-03T22:42:54.248Z,74.41
2022-08-03T22:46:06.876Z,75.20
2022-08-03T22:48:08.579Z,75.37
2022-08-03T22:50:35.838Z,75.35
2022-08-03T22:53:03.452Z,75.46
2022-08-03T22:55:31.054Z,76.18
2022-08-03T22:57:58.317Z,76.66
2022-08-03T23:00:25.463Z,76.86
2022-08-03T23:02:54.722Z,77.03
2022-08-03T23:06:02.103Z,76.65
2022-08-03T23:08:14.897Z,77.80
2022-08-03T23:10:46.779Z,76.78
2022-08-03T23:13:17.146Z,76.78
2022-08-03T23:15:51.110Z,77.94
2022-08-03T23:18:21.880Z,77.64
2022-08-03T23:20:53.094Z,77.71
2022-08-03T23:23:20.937Z,77.48
2022-08-03T23:25:50.547Z,78.23
2022-08-03T23:28:18.628Z,78.49
2022-08-03T23:30:46.780Z,78.15
2022-08-03T23:33:16.337Z,79.33
2022-08-03T23:36:18.668Z,78.93
2022-08-03T23:38:49.161Z,79.51
2022-08-03T23:41:17.468Z,79.01
2022-08-03T23:43:53.869Z,79.02
2022-08-03T23:46:22.573Z,79.47
2022-08-03T23:48:50.745Z,80.69
2022-08-03T23:51:49.379Z,80.70
2022-08-03T23:54:36.926Z,80.09
2022-08-03T23:57:49.880Z,80.66
